createdAt,value
2017-03-28T00:00:19.899Z,45.68
2017-03-28T00:01:19.911Z,45.58
2017-03-28T00:02:19.937Z,45.68
2017-03-28T00:03:19.951Z,45.49
2017-03-28T00:04:19.970Z,45.78
2017-03-28T00:05:19.989Z,45.78
2017-03-28T00:06:20.004Z,45.78
2017-03-28T00:07:20.025Z,45.58
2017-03-28T00:08:20.046Z,45.78
2017-03-28T00:09:20.063Z,46.06
2017-03-28T00:10:20.077Z,45.97
2017-03-28T00:11:19.783Z,46.15
2017-03-28T00:12:20.110Z,45.78
2017-03-28T00:13:20.135Z,45.78
2017-03-28T00:14:20.154Z,46.06
2017-03-28T00:15:20.165Z,46.06
2017-03-28T00:16:20.183Z,46.15
2017-03-28T00:17:20.208Z,46.06
2017-03-28T00:18:20.224Z,46.15
2017-03-28T00:19:20.236Z,45.97
2017-03-28T00:20:20.251Z,46.63
2017-03-28T00:21:20.268Z,46.63
2017-03-28T00:22:20.287Z,46.44
2017-03-28T00:23:20.305Z,46.25
2017-03-28T00:24:20.322Z,46.54
2017-03-28T00:25:20.336Z,46.54
2017-03-28T00:26:20.359Z,46.44
2017-03-28T00:27:20.383Z,46.63
2017-03-28T00:28:20.395Z,46.44
2017-03-28T00:29:20.410Z,46.44
2017-03-28T00:30:20.423Z,46.92
2017-03-28T00:31:20.444Z,46.61
2017-03-28T00:32:20.462Z,46.92
2017-03-28T00:33:20.474Z,46.7
2017-03-28T00:34:20.497Z,46.73
2017-03-28T00:35:20.507Z,46.92
2017-03-28T00:36:20.528Z,46.92
2017-03-28T00:37:20.546Z,47.49
2017-03-28T00:38:20.566Z,47.87
2017-03-28T00:39:20.577Z,47.39
2017-03-28T00:40:20.597Z,46.73
2017-03-28T00:41:20.613Z,47.11
2017-03-28T00:42:20.632Z,46.99
2017-03-28T00:43:20.650Z,47.3
2017-03-28T00:44:20.672Z,47.2
2017-03-28T00:45:20.679Z,46.92
2017-03-28T00:46:20.700Z,47.49
2017-03-28T00:47:20.714Z,46.7
2017-03-28T00:48:20.736Z,46.89
2017-03-28T00:49:20.754Z,47.28
2017-03-28T00:50:20.768Z,47.08
2017-03-28T00:51:20.790Z,47.37
2017-03-28T00:52:20.803Z,47.47
2017-03-28T00:53:20.820Z,47.47
2017-03-28T00:54:20.838Z,47.37
2017-03-28T00:55:20.854Z,47.37
2017-03-28T00:56:20.870Z,47.47
2017-03-28T00:57:20.887Z,47.47
2017-03-28T00:58:20.909Z,47.56
2017-03-28T00:59:20.920Z,47.56
2017-03-28T01:00:20.938Z,47.18
2017-03-28T01:01:20.956Z,47.66
2017-03-28T01:02:20.972Z,47.85
2017-03-28T01:03:20.989Z,47.94
2017-03-28T01:04:21.007Z,47.56
2017-03-28T01:05:21.023Z,47.66
2017-03-28T01:06:21.037Z,47.75
2017-03-28T01:07:21.055Z,47.56
2017-03-28T01:08:21.076Z,48.23
2017-03-28T01:09:21.094Z,47.56
2017-03-28T01:10:21.113Z,47.47
2017-03-28T01:11:21.126Z,48.04
2017-03-28T01:12:21.139Z,48.13
2017-03-28T01:13:21.159Z,47.85
2017-03-28T01:14:21.180Z,47.85
2017-03-28T01:15:21.189Z,47.66
2017-03-28T01:16:21.209Z,47.94
2017-03-28T01:17:21.225Z,48.04
2017-03-28T01:18:21.244Z,47.85
2017-03-28T01:19:21.257Z,48.13
2017-03-28T01:20:21.273Z,48.04
2017-03-28T01:21:21.289Z,48.23
2017-03-28T01:22:21.320Z,48.04
2017-03-28T01:23:21.327Z,48.13
2017-03-28T01:24:21.347Z,48.13
2017-03-28T01:25:21.358Z,48.04
2017-03-28T01:26:21.375Z,48.04
2017-03-28T01:27:21.393Z,48.32
2017-03-28T01:28:21.412Z,48.42
2017-03-28T01:29:21.428Z,48.49
2017-03-28T01:30:21.126Z,48.39
2017-03-28T01:31:21.462Z,48.11
2017-03-28T01:32:21.476Z,48.52
2017-03-28T01:33:21.494Z,48.42
2017-03-28T01:34:21.509Z,48.87
2017-03-28T01:35:21.529Z,48.3
2017-03-28T01:36:21.552Z,48.87
2017-03-28T01:37:21.556Z,48.39
2017-03-28T01:38:21.672Z,48.78
2017-03-28T01:39:21.670Z,48.49
2017-03-28T01:40:21.679Z,48.58
2017-03-28T01:41:21.850Z,48.68
2017-03-28T01:42:21.861Z,48.58
2017-03-28T01:43:21.802Z,48.68
2017-03-28T01:44:21.677Z,49.35
2017-03-28T01:45:21.693Z,48.68
2017-03-28T01:46:21.709Z,49.06
2017-03-28T01:47:21.774Z,48.78
2017-03-28T01:48:21.742Z,49.06
2017-03-28T01:49:21.760Z,48.97
2017-03-28T01:50:21.777Z,48.78
2017-03-28T01:51:21.793Z,48.78
2017-03-28T01:52:21.808Z,48.97
2017-03-28T01:53:21.825Z,48.78
2017-03-28T01:54:21.845Z,48.87
2017-03-28T01:55:21.857Z,48.97
2017-03-28T01:56:21.877Z,49.54
2017-03-28T01:57:21.931Z,48.97
2017-03-28T01:58:21.932Z,48.87
2017-03-28T01:59:21.935Z,49.35
2017-03-28T02:00:21.961Z,49.26
2017-03-28T02:01:21.647Z,49.06
2017-03-28T02:02:21.973Z,49.63
2017-03-28T02:03:21.992Z,49.44
2017-03-28T02:04:21.690Z,49.06
2017-03-28T02:05:22.021Z,49.35
2017-03-28T02:06:22.040Z,49.82
2017-03-28T02:07:22.057Z,50.11
2017-03-28T02:08:22.070Z,49.92
2017-03-28T02:09:22.087Z,49.63
2017-03-28T02:10:22.103Z,49.82
2017-03-28T02:11:22.120Z,49.54
2017-03-28T02:12:22.133Z,49.82
2017-03-28T02:13:22.155Z,49.35
2017-03-28T02:14:22.170Z,49.35
2017-03-28T02:15:22.181Z,49.73
2017-03-28T02:16:22.202Z,50.01
2017-03-28T02:17:22.320Z,50.11
2017-03-28T02:18:22.231Z,49.26
2017-03-28T02:19:22.253Z,50.3
2017-03-28T02:20:22.265Z,50.49
2017-03-28T02:21:22.283Z,50.4
2017-03-28T02:22:22.299Z,50.4
2017-03-28T02:23:22.350Z,50.3
2017-03-28T02:24:22.334Z,49.63
2017-03-28T02:25:22.342Z,49.92
2017-03-28T02:26:22.363Z,49.8
2017-03-28T02:27:22.378Z,50.09
2017-03-28T02:28:22.399Z,49.9
2017-03-28T02:29:22.411Z,49.71
2017-03-28T02:30:22.430Z,50.09
2017-03-28T02:31:22.447Z,50.3
2017-03-28T02:32:22.458Z,50.27
2017-03-28T02:33:22.480Z,49.8
2017-03-28T02:34:22.496Z,50.37
2017-03-28T02:35:22.506Z,50.27
2017-03-28T02:36:22.526Z,50.37
2017-03-28T02:37:22.608Z,50.37
2017-03-28T02:38:22.557Z,50.37
2017-03-28T02:39:22.576Z,50.56
2017-03-28T02:40:22.589Z,50.46
2017-03-28T02:41:22.604Z,50.37
2017-03-28T02:42:22.620Z,50.37
2017-03-28T02:43:22.639Z,50.85
2017-03-28T02:44:22.672Z,50.56
2017-03-28T02:45:22.763Z,50.56
2017-03-28T02:46:22.695Z,50.27
2017-03-28T02:47:22.696Z,50.85
2017-03-28T02:48:22.720Z,50.56
2017-03-28T02:49:22.731Z,50.85
2017-03-28T02:50:22.751Z,50.75
2017-03-28T02:51:22.765Z,50.75
2017-03-28T02:52:22.780Z,50.27
2017-03-28T02:53:22.801Z,50.75
2017-03-28T02:54:22.815Z,50.75
2017-03-28T02:55:22.516Z,51.04
2017-03-28T02:56:22.842Z,51.04
2017-03-28T02:57:22.861Z,50.66
2017-03-28T02:58:22.876Z,50.94
2017-03-28T02:59:22.897Z,50.85
2017-03-28T03:00:22.909Z,50.75
2017-03-28T03:01:22.609Z,50.85
2017-03-28T03:02:22.942Z,50.56
2017-03-28T03:03:22.956Z,50.56
2017-03-28T03:04:22.977Z,50.85
2017-03-28T03:05:22.990Z,51.04
2017-03-28T03:06:23.005Z,51.32
2017-03-28T03:07:23.017Z,51.23
2017-03-28T03:08:23.037Z,51.23
2017-03-28T03:09:23.058Z,51.32
2017-03-28T03:10:23.073Z,51.23
2017-03-28T03:11:23.084Z,51.14
2017-03-28T03:12:23.099Z,50.94
2017-03-28T03:13:23.122Z,51.23
2017-03-28T03:14:23.133Z,51.32
2017-03-28T03:15:23.151Z,51.51
2017-03-28T03:16:23.165Z,51.23
2017-03-28T03:17:23.179Z,51.42
2017-03-28T03:18:23.200Z,51.14
2017-03-28T03:19:23.211Z,51.32
2017-03-28T03:20:23.229Z,51.23
2017-03-28T03:21:23.242Z,51.39
2017-03-28T03:22:23.255Z,51.51
2017-03-28T03:23:23.275Z,51.32
2017-03-28T03:24:23.290Z,51.61
2017-03-28T03:25:22.989Z,51.61
2017-03-28T03:26:23.320Z,51.32
2017-03-28T03:27:23.336Z,51.3
2017-03-28T03:28:23.355Z,51.51
2017-03-28T03:29:23.367Z,51.58
2017-03-28T03:30:23.382Z,51.51
2017-03-28T03:31:23.419Z,51.51
2017-03-28T03:32:23.102Z,51.3
2017-03-28T03:33:23.434Z,51.3
2017-03-28T03:34:23.451Z,51.58
2017-03-28T03:35:23.466Z,51.61
2017-03-28T03:36:23.476Z,51.49
2017-03-28T03:37:23.496Z,51.49
2017-03-28T03:38:23.513Z,51.49
2017-03-28T03:39:23.527Z,51.49
2017-03-28T03:40:23.563Z,51.68
2017-03-28T03:41:23.562Z,51.78
2017-03-28T03:42:23.573Z,51.58
2017-03-28T03:43:23.593Z,51.68
2017-03-28T03:44:23.606Z,51.78
2017-03-28T03:45:23.620Z,51.58
2017-03-28T03:46:23.636Z,51.87
2017-03-28T03:47:23.651Z,51.58
2017-03-28T03:48:23.667Z,51.78
2017-03-28T03:49:23.690Z,51.87
2017-03-28T03:50:23.696Z,52.06
2017-03-28T03:51:23.720Z,51.97
2017-03-28T03:52:23.726Z,51.97
2017-03-28T03:53:23.741Z,52.15
2017-03-28T03:54:23.764Z,52.15
2017-03-28T03:55:23.773Z,51.87
2017-03-28T03:56:23.789Z,51.87
2017-03-28T03:57:23.806Z,52.25
2017-03-28T03:58:23.826Z,52.34
2017-03-28T03:59:23.841Z,52.06
2017-03-28T04:00:23.852Z,52.06
2017-03-28T04:01:23.864Z,52.15
2017-03-28T04:02:23.896Z,52.34
2017-03-28T04:03:23.896Z,52.15
2017-03-28T04:04:23.911Z,52.25
2017-03-28T04:05:23.928Z,52.34
2017-03-28T04:06:23.944Z,52.25
2017-03-28T04:07:23.961Z,52.25
2017-03-28T04:08:23.975Z,52.53
2017-03-28T04:09:23.993Z,52.53
2017-03-28T04:10:24.006Z,52.63
2017-03-28T04:11:24.021Z,52.63
2017-03-28T04:12:24.037Z,52.63
2017-03-28T04:13:24.055Z,52.53
2017-03-28T04:14:24.072Z,52.72
2017-03-28T04:15:24.101Z,52.92
2017-03-28T04:16:24.098Z,52.82
2017-03-28T04:17:23.804Z,52.53
2017-03-28T04:18:24.130Z,52.92
2017-03-28T04:19:24.146Z,52.72
2017-03-28T04:20:23.847Z,52.44
2017-03-28T04:21:24.176Z,53.01
2017-03-28T04:22:23.878Z,52.34
2017-03-28T04:23:24.210Z,52.53
2017-03-28T04:24:24.254Z,52.63
2017-03-28T04:25:24.237Z,52.72
2017-03-28T04:26:24.253Z,52.63
2017-03-28T04:27:24.274Z,52.53
2017-03-28T04:28:24.284Z,52.53
2017-03-28T04:29:24.302Z,52.53
2017-03-28T04:30:24.313Z,53.01
2017-03-28T04:31:24.330Z,52.72
2017-03-28T04:32:24.344Z,53.2
2017-03-28T04:33:24.360Z,52.63
2017-03-28T04:34:24.377Z,53.11
2017-03-28T04:35:24.392Z,52.72
2017-03-28T04:36:24.095Z,53.01
2017-03-28T04:37:24.421Z,53.49
2017-03-28T04:38:24.441Z,53.39
2017-03-28T04:39:24.460Z,52.72
2017-03-28T04:40:24.468Z,52.63
2017-03-28T04:41:24.169Z,53.2
2017-03-28T04:42:24.496Z,53.2
2017-03-28T04:43:24.517Z,53.3
2017-03-28T04:44:24.528Z,53.67
2017-03-28T04:45:24.544Z,53.11
2017-03-28T04:46:24.573Z,52.82
2017-03-28T04:47:24.260Z,53.49
2017-03-28T04:48:24.589Z,53.2
2017-03-28T04:49:24.618Z,53.58
2017-03-28T04:50:24.624Z,53.11
2017-03-28T04:51:24.639Z,53.46
2017-03-28T04:52:24.653Z,53.58
2017-03-28T04:53:24.664Z,53.67
2017-03-28T04:54:24.683Z,53.3
2017-03-28T04:55:24.699Z,53.58
2017-03-28T04:56:24.707Z,53.49
2017-03-28T04:57:24.726Z,53.39
2017-03-28T04:58:24.738Z,53.39
2017-03-28T04:59:24.756Z,53.3
2017-03-28T05:00:24.777Z,54.22
2017-03-28T05:01:24.474Z,54.32
2017-03-28T05:02:24.800Z,53.3
2017-03-28T05:03:24.822Z,53.27
2017-03-28T05:04:24.841Z,53.39
2017-03-28T05:05:24.845Z,53.39
2017-03-28T05:06:24.553Z,54.15
2017-03-28T05:07:24.881Z,53.46
2017-03-28T05:08:24.907Z,53.46
2017-03-28T05:09:24.912Z,53.58
2017-03-28T05:10:24.925Z,53.46
2017-03-28T05:11:24.948Z,54.32
2017-03-28T05:12:24.951Z,53.36
2017-03-28T05:13:25.005Z,53.36
2017-03-28T05:14:24.984Z,53.55
2017-03-28T05:15:24.996Z,53.94
2017-03-28T05:16:25.024Z,54.03
2017-03-28T05:17:25.033Z,53.67
2017-03-28T05:18:25.039Z,53.65
2017-03-28T05:19:25.059Z,53.65
2017-03-28T05:20:25.068Z,53.75
2017-03-28T05:21:25.088Z,53.75
2017-03-28T05:22:25.106Z,53.84
2017-03-28T05:23:25.119Z,53.94
2017-03-28T05:24:25.132Z,53.94
2017-03-28T05:25:25.146Z,53.94
2017-03-28T05:26:25.161Z,54.13
2017-03-28T05:27:25.177Z,54.41
2017-03-28T05:28:25.197Z,54.03
2017-03-28T05:29:25.219Z,54.13
2017-03-28T05:30:25.222Z,53.94
2017-03-28T05:31:25.237Z,54.69
2017-03-28T05:32:24.958Z,54.13
2017-03-28T05:33:25.266Z,54.22
2017-03-28T05:34:25.284Z,54.03
2017-03-28T05:35:25.298Z,54.22
2017-03-28T05:36:25.319Z,53.84
2017-03-28T05:37:25.330Z,54.41
2017-03-28T05:38:25.345Z,54.13
2017-03-28T05:39:25.360Z,54.22
2017-03-28T05:40:25.379Z,54.03
2017-03-28T05:41:25.388Z,54.32
2017-03-28T05:42:25.408Z,54.13
2017-03-28T05:43:25.417Z,54.06
2017-03-28T05:44:25.434Z,54.5
2017-03-28T05:45:25.443Z,55.01
2017-03-28T05:46:25.461Z,54.69
2017-03-28T05:47:25.525Z,54.82
2017-03-28T05:48:25.496Z,54.89
2017-03-28T05:49:25.515Z,54.89
2017-03-28T05:50:25.523Z,54.82
2017-03-28T05:51:25.535Z,55.1
2017-03-28T05:52:25.579Z,55.1
2017-03-28T05:53:25.569Z,54.82
2017-03-28T05:54:25.587Z,54.91
2017-03-28T05:55:25.602Z,54.53
2017-03-28T05:56:25.614Z,54.82
2017-03-28T05:57:25.625Z,55.2
2017-03-28T05:58:25.641Z,55.2
2017-03-28T05:59:25.660Z,54.72
2017-03-28T06:00:25.678Z,54.72
2017-03-28T06:01:25.687Z,55.29
2017-03-28T06:02:25.698Z,55.2
2017-03-28T06:03:25.718Z,55.1
2017-03-28T06:04:25.733Z,55.39
2017-03-28T06:05:25.746Z,55.29
2017-03-28T06:06:25.764Z,55.2
2017-03-28T06:07:25.790Z,55.2
2017-03-28T06:08:25.800Z,55.29
2017-03-28T06:09:25.807Z,55.49
2017-03-28T06:10:25.822Z,55.29
2017-03-28T06:11:25.836Z,55.58
2017-03-28T06:12:25.856Z,56.15
2017-03-28T06:13:25.869Z,55.87
2017-03-28T06:14:25.885Z,55.58
2017-03-28T06:15:25.896Z,55.77
2017-03-28T06:16:25.910Z,55.29
2017-03-28T06:17:25.929Z,55.87
2017-03-28T06:18:25.946Z,55.49
2017-03-28T06:19:25.960Z,55.2
2017-03-28T06:20:25.972Z,55.58
2017-03-28T06:21:26.012Z,55.29
2017-03-28T06:22:26.004Z,55.77
2017-03-28T06:23:26.018Z,55.68
2017-03-28T06:24:26.036Z,55.58
2017-03-28T06:25:25.731Z,55.39
2017-03-28T06:26:26.067Z,55.22
2017-03-28T06:27:26.090Z,55.22
2017-03-28T06:28:26.094Z,55.22
2017-03-28T06:29:26.106Z,55.22
2017-03-28T06:30:26.135Z,55.68
2017-03-28T06:31:26.137Z,55.13
2017-03-28T06:32:26.154Z,55.22
2017-03-28T06:33:26.176Z,55.22
2017-03-28T06:34:26.185Z,54.85
2017-03-28T06:35:26.199Z,55.32
2017-03-28T06:36:26.216Z,55.22
2017-03-28T06:37:26.227Z,55.32
2017-03-28T06:38:26.246Z,55.32
2017-03-28T06:39:26.263Z,55.42
2017-03-28T06:40:26.274Z,55.61
2017-03-28T06:41:26.287Z,55.51
2017-03-28T06:42:26.305Z,55.9
2017-03-28T06:43:26.320Z,55.7
2017-03-28T06:44:26.338Z,55.83
2017-03-28T06:45:26.350Z,55.73
2017-03-28T06:46:26.369Z,56.11
2017-03-28T06:47:26.382Z,55.63
2017-03-28T06:48:26.396Z,55.35
2017-03-28T06:49:26.412Z,55.35
2017-03-28T06:50:26.425Z,55.73
2017-03-28T06:51:26.444Z,55.35
2017-03-28T06:52:26.459Z,55.26
2017-03-28T06:53:26.470Z,55.26
2017-03-28T06:54:26.494Z,55.73
2017-03-28T06:55:26.504Z,55.63
2017-03-28T06:56:26.517Z,55.07
2017-03-28T06:57:26.539Z,54.97
2017-03-28T06:58:26.545Z,54.88
2017-03-28T06:59:26.568Z,55.28
2017-03-28T07:00:26.583Z,55.09
2017-03-28T07:01:26.590Z,54.71
2017-03-28T07:02:26.618Z,54.61
2017-03-28T07:03:26.631Z,54.9
2017-03-28T07:04:26.642Z,55.76
2017-03-28T07:05:26.655Z,55.09
2017-03-28T07:06:26.672Z,54.8
2017-03-28T07:07:26.685Z,54.71
2017-03-28T07:08:26.703Z,55.47
2017-03-28T07:09:26.717Z,55
2017-03-28T07:10:26.732Z,54.61
2017-03-28T07:11:26.750Z,54.26
2017-03-28T07:12:26.763Z,54.64
2017-03-28T07:13:26.780Z,54.36
2017-03-28T07:14:26.799Z,54.26
2017-03-28T07:15:26.812Z,54.17
2017-03-28T07:16:26.824Z,54.17
2017-03-28T07:17:26.849Z,54.45
2017-03-28T07:18:26.859Z,53.97
2017-03-28T07:19:26.888Z,53.5
2017-03-28T07:20:26.893Z,53.41
2017-03-28T07:21:26.931Z,54.45
2017-03-28T07:22:26.920Z,53.78
2017-03-28T07:23:26.941Z,53.91
2017-03-28T07:24:26.954Z,53.72
2017-03-28T07:25:26.975Z,53.72
2017-03-28T07:26:26.672Z,53.72
2017-03-28T07:27:26.691Z,52.86
2017-03-28T07:28:27.020Z,52.86
2017-03-28T07:29:27.037Z,52.67
2017-03-28T07:30:27.049Z,52.76
2017-03-28T07:31:27.067Z,53.53
2017-03-28T07:32:27.083Z,52.67
2017-03-28T07:33:27.106Z,52.57
2017-03-28T07:34:27.114Z,53.24
2017-03-28T07:35:27.129Z,52.95
2017-03-28T07:36:27.148Z,52.79
2017-03-28T07:37:27.166Z,52.88
2017-03-28T07:38:27.181Z,52.79
2017-03-28T07:39:27.194Z,52.59
2017-03-28T07:40:27.214Z,52.59
2017-03-28T07:41:27.225Z,52.31
2017-03-28T07:42:27.240Z,52.59
2017-03-28T07:43:27.262Z,52.4
2017-03-28T07:44:27.281Z,52.31
2017-03-28T07:45:27.291Z,52.22
2017-03-28T07:46:27.311Z,52.12
2017-03-28T07:47:27.328Z,51.67
2017-03-28T07:48:27.343Z,51.38
2017-03-28T07:49:27.354Z,51.38
2017-03-28T07:50:27.374Z,51.48
2017-03-28T07:51:27.390Z,51.67
2017-03-28T07:52:27.405Z,51.67
2017-03-28T07:53:27.423Z,51.67
2017-03-28T07:54:27.444Z,50.81
2017-03-28T07:55:27.458Z,51
2017-03-28T07:56:27.470Z,50.71
2017-03-28T07:57:27.488Z,51.12
2017-03-28T07:58:27.507Z,51.21
2017-03-28T07:59:27.521Z,50.74
2017-03-28T08:00:27.550Z,50.55
2017-03-28T08:01:27.558Z,50.74
2017-03-28T08:02:27.576Z,50.84
2017-03-28T08:03:27.274Z,50.93
2017-03-28T08:04:27.606Z,50.84
2017-03-28T08:05:27.622Z,50.35
2017-03-28T08:06:27.645Z,50.84
2017-03-28T08:07:27.652Z,50.67
2017-03-28T08:08:27.671Z,50.16
2017-03-28T08:09:27.695Z,50.57
2017-03-28T08:10:27.707Z,50.09
2017-03-28T08:11:27.723Z,49.62
2017-03-28T08:12:27.748Z,50
2017-03-28T08:13:27.777Z,49.71
2017-03-28T08:14:27.780Z,49.52
2017-03-28T08:15:27.792Z,49.8
2017-03-28T08:16:27.819Z,49.52
2017-03-28T08:17:27.517Z,50.09
2017-03-28T08:18:27.848Z,49.33
2017-03-28T08:19:27.862Z,49.35
2017-03-28T08:20:27.877Z,49.55
2017-03-28T08:21:27.897Z,49.26
2017-03-28T08:22:27.912Z,48.68
2017-03-28T08:23:27.928Z,48.21
2017-03-28T08:24:27.954Z,48.11
2017-03-28T08:25:27.969Z,48.11
2017-03-28T08:26:27.980Z,48.11
2017-03-28T08:27:27.995Z,47.82
2017-03-28T08:28:28.014Z,48.11
2017-03-28T08:29:28.035Z,48.02
2017-03-28T08:30:28.051Z,48.11
2017-03-28T08:31:27.756Z,48.02
2017-03-28T08:32:28.088Z,47.92
2017-03-28T08:33:28.104Z,48.11
2017-03-28T08:34:28.129Z,47.47
2017-03-28T08:35:28.138Z,46.98
2017-03-28T08:36:27.893Z,46.61
2017-03-28T08:37:28.175Z,46.89
2017-03-28T08:38:28.189Z,46.89
2017-03-28T08:39:28.211Z,47.37
2017-03-28T08:40:28.227Z,46.89
2017-03-28T08:41:28.249Z,47.08
2017-03-28T08:42:28.262Z,47.37
2017-03-28T08:43:28.284Z,47.37
2017-03-28T08:44:28.294Z,47.66
2017-03-28T08:45:28.312Z,47.49
2017-03-28T08:46:28.335Z,47.58
2017-03-28T08:47:28.357Z,46.91
2017-03-28T08:48:28.370Z,46.72
2017-03-28T08:49:28.392Z,47.01
2017-03-28T08:50:28.405Z,46.91
2017-03-28T08:51:28.420Z,46.91
2017-03-28T08:52:28.442Z,47.11
2017-03-28T08:53:28.460Z,47.01
2017-03-28T08:54:28.478Z,47.01
2017-03-28T08:55:28.495Z,46.84
2017-03-28T08:56:28.510Z,46.65
2017-03-28T08:57:28.538Z,46.46
2017-03-28T08:58:28.554Z,46.36
2017-03-28T08:59:28.572Z,46.26
2017-03-28T09:00:28.587Z,45.98
2017-03-28T09:01:28.604Z,45.79
2017-03-28T09:02:28.619Z,45.89
2017-03-28T09:03:28.644Z,46.1
2017-03-28T09:04:28.661Z,45.81
2017-03-28T09:05:28.677Z,45.62
2017-03-28T09:06:28.697Z,44.85
2017-03-28T09:07:28.715Z,44.27
2017-03-28T09:08:28.731Z,43.99
2017-03-28T09:09:28.757Z,43.23
2017-03-28T09:10:28.777Z,42.74
2017-03-28T09:11:28.787Z,42.46
2017-03-28T09:12:28.810Z,42.65
2017-03-28T09:13:28.824Z,42.55
2017-03-28T09:14:28.850Z,42.65
2017-03-28T09:15:28.862Z,42.27
2017-03-28T09:16:28.882Z,42.65
2017-03-28T09:17:28.903Z,43.03
2017-03-28T09:18:28.928Z,43.23
2017-03-28T09:19:28.959Z,43.53
2017-03-28T09:20:28.955Z,42.96
2017-03-28T09:21:28.976Z,43.73
2017-03-28T09:22:28.998Z,43.44
2017-03-28T09:23:29.021Z,42.67
2017-03-28T09:24:29.044Z,42.79
2017-03-28T09:25:29.066Z,42.86
2017-03-28T09:26:29.084Z,42.98
2017-03-28T09:27:29.090Z,42.4
2017-03-28T09:28:29.121Z,42.11
2017-03-28T09:29:28.819Z,42.02
2017-03-28T09:30:29.158Z,42.02
2017-03-28T09:31:29.178Z,41.06
2017-03-28T09:32:29.193Z,40.96
2017-03-28T09:33:28.892Z,40.67
2017-03-28T09:34:29.231Z,41.06
2017-03-28T09:35:29.240Z,40.67
2017-03-28T09:36:29.261Z,41.06
2017-03-28T09:37:29.280Z,40.96
2017-03-28T09:38:29.305Z,41.08
2017-03-28T09:39:29.324Z,40.7
2017-03-28T09:40:29.341Z,40.89
2017-03-28T09:41:29.356Z,40.79
2017-03-28T09:42:29.377Z,40.79
2017-03-28T09:43:29.094Z,40.79
2017-03-28T09:44:29.417Z,40.6
2017-03-28T09:45:29.433Z,40.81
2017-03-28T09:46:29.454Z,40.23
2017-03-28T09:47:29.476Z,39.85
2017-03-28T09:48:29.500Z,39.66
2017-03-28T09:49:29.518Z,39.66
2017-03-28T09:50:29.531Z,39.85
2017-03-28T09:51:29.554Z,40.23
2017-03-28T09:52:29.573Z,39.85
2017-03-28T09:53:29.592Z,39.68
2017-03-28T09:54:29.619Z,39.56
2017-03-28T09:55:29.630Z,38.89
2017-03-28T09:56:29.653Z,38.62
2017-03-28T09:57:29.671Z,37.27
2017-03-28T09:58:29.691Z,37.66
2017-03-28T09:59:29.713Z,37.47
2017-03-28T10:00:29.728Z,37.47
2017-03-28T10:01:29.753Z,37.47
2017-03-28T10:02:29.778Z,36.99
2017-03-28T10:03:29.795Z,36.7
2017-03-28T10:04:29.814Z,35.74
2017-03-28T10:05:29.519Z,35.06
2017-03-28T10:06:29.851Z,34.39
2017-03-28T10:07:29.871Z,34.12
2017-03-28T10:08:29.893Z,34.49
2017-03-28T10:09:29.603Z,34.59
2017-03-28T10:10:29.625Z,35.16
2017-03-28T10:11:29.948Z,35.38
2017-03-28T10:12:29.976Z,35.57
2017-03-28T10:13:29.679Z,35.47
2017-03-28T10:14:29.699Z,35.57
2017-03-28T10:15:29.723Z,34.7
2017-03-28T10:16:30.054Z,34.41
2017-03-28T10:17:30.083Z,33.64
2017-03-28T10:18:30.096Z,32.2
2017-03-28T10:19:30.117Z,31.82
2017-03-28T10:20:30.136Z,31.72
2017-03-28T10:21:30.158Z,31.53
2017-03-28T10:22:30.177Z,31.72
2017-03-28T10:23:30.202Z,32.01
2017-03-28T10:24:30.221Z,32.3
2017-03-28T10:25:30.241Z,33.08
2017-03-28T10:26:30.259Z,32.79
2017-03-28T10:27:30.284Z,32.89
2017-03-28T10:28:30.300Z,32.89
2017-03-28T10:29:30.324Z,32.89
2017-03-28T10:30:30.354Z,32.98
2017-03-28T10:31:30.365Z,32.98
2017-03-28T10:32:30.397Z,32.79
2017-03-28T10:33:30.403Z,32.79
2017-03-28T10:34:30.426Z,32.21
2017-03-28T10:35:30.449Z,32.52
2017-03-28T10:36:30.471Z,32.14
2017-03-28T10:37:30.179Z,31.37
2017-03-28T10:38:30.196Z,30.79
2017-03-28T10:39:30.547Z,30.21
2017-03-28T10:40:30.552Z,29.73
2017-03-28T10:41:30.262Z,30.11
2017-03-28T10:42:30.283Z,30.21
2017-03-28T10:43:30.620Z,29.83
2017-03-28T10:44:30.640Z,30.02
2017-03-28T10:45:30.663Z,31.85
2017-03-28T10:46:30.678Z,31.65
2017-03-28T10:47:30.706Z,31.67
2017-03-28T10:48:30.725Z,31.67
2017-03-28T10:49:30.744Z,30.71
2017-03-28T10:50:30.455Z,30.32
2017-03-28T10:51:30.480Z,29.55
2017-03-28T10:52:30.493Z,28.78
2017-03-28T10:53:30.829Z,28.2
2017-03-28T10:54:30.537Z,28.78
2017-03-28T10:55:30.556Z,28.4
2017-03-28T10:56:30.583Z,28.49
2017-03-28T10:57:30.918Z,28.13
2017-03-28T10:58:30.940Z,27.55
2017-03-28T10:59:30.962Z,27.64
2017-03-28T11:00:30.982Z,27.74
2017-03-28T11:01:31.004Z,28.03
2017-03-28T11:02:31.027Z,27.74
2017-03-28T11:03:31.047Z,27.93
2017-03-28T11:04:31.094Z,28.22
2017-03-28T11:05:31.093Z,28.31
2017-03-28T11:06:31.113Z,27.74
2017-03-28T11:07:31.135Z,27.75
2017-03-28T11:08:31.156Z,27.56
2017-03-28T11:09:31.184Z,26.98
2017-03-28T11:10:31.206Z,26.89
2017-03-28T11:11:31.223Z,26.21
2017-03-28T11:12:31.243Z,25.63
2017-03-28T11:13:31.263Z,25.54
2017-03-28T11:14:31.288Z,26.11
2017-03-28T11:15:31.311Z,26.02
2017-03-28T11:16:31.332Z,26.02
2017-03-28T11:17:31.362Z,26.21
2017-03-28T11:18:31.377Z,26.31
2017-03-28T11:19:31.417Z,26.21
2017-03-28T11:20:31.420Z,26.32
2017-03-28T11:21:31.440Z,26.32
2017-03-28T11:22:31.465Z,26.12
2017-03-28T11:23:31.503Z,25.74
2017-03-28T11:24:31.517Z,26.42
2017-03-28T11:25:31.540Z,26.12
2017-03-28T11:26:31.563Z,26.22
2017-03-28T11:27:31.589Z,26.12
2017-03-28T11:28:31.604Z,26.33
2017-03-28T11:29:31.634Z,26.14
2017-03-28T11:30:31.644Z,25.75
2017-03-28T11:31:31.667Z,25.66
2017-03-28T11:32:31.687Z,24.98
2017-03-28T11:33:31.714Z,24.4
2017-03-28T11:34:31.736Z,23.92
2017-03-28T11:35:31.770Z,23.92
2017-03-28T11:36:31.803Z,24.02
2017-03-28T11:37:31.804Z,23.82
2017-03-28T11:38:31.830Z,23.83
2017-03-28T11:39:31.854Z,24.13
2017-03-28T11:40:31.874Z,24.22
2017-03-28T11:41:31.892Z,24.32
2017-03-28T11:42:31.915Z,23.93
2017-03-28T11:43:31.940Z,23.74
2017-03-28T11:44:31.960Z,23.83
2017-03-28T11:45:31.984Z,24.03
2017-03-28T11:46:32.007Z,24.03
2017-03-28T11:47:32.034Z,24.41
2017-03-28T11:48:32.056Z,24.03
2017-03-28T11:49:31.764Z,23.83
2017-03-28T11:50:32.101Z,24.43
2017-03-28T11:51:32.136Z,24.13
2017-03-28T11:52:32.147Z,24.04
2017-03-28T11:53:32.172Z,23.75
2017-03-28T11:54:32.192Z,23.94
2017-03-28T11:55:32.216Z,23.94
2017-03-28T11:56:31.927Z,24.23
2017-03-28T11:57:32.262Z,23.56
2017-03-28T11:58:32.286Z,23.46
2017-03-28T11:59:32.308Z,23.27
2017-03-28T12:00:32.332Z,23.46
2017-03-28T12:01:32.356Z,22.59
2017-03-28T12:02:32.378Z,22.5
2017-03-28T12:03:32.403Z,22.59
2017-03-28T12:04:32.113Z,22.6
2017-03-28T12:05:32.457Z,22.8
2017-03-28T12:06:32.472Z,22.89
2017-03-28T12:07:32.496Z,22.7
2017-03-28T12:08:32.527Z,22.89
2017-03-28T12:09:32.573Z,22.89
2017-03-28T12:10:32.564Z,22.8
2017-03-28T12:11:32.595Z,22.7
2017-03-28T12:12:32.305Z,22.89
2017-03-28T12:13:32.647Z,22.89
2017-03-28T12:14:32.666Z,22.8
2017-03-28T12:15:32.689Z,22.6
2017-03-28T12:16:32.717Z,23
2017-03-28T12:17:32.733Z,22.81
2017-03-28T12:18:32.761Z,23.29
2017-03-28T12:19:32.782Z,23
2017-03-28T12:20:32.492Z,22.61
2017-03-28T12:21:32.831Z,22.71
2017-03-28T12:22:32.856Z,22.91
2017-03-28T12:23:32.876Z,22.61
2017-03-28T12:24:32.908Z,23.49
2017-03-28T12:25:32.924Z,23.5
2017-03-28T12:26:32.950Z,22.52
2017-03-28T12:27:32.974Z,22.24
2017-03-28T12:28:32.997Z,22.05
2017-03-28T12:29:33.026Z,22.14
2017-03-28T12:30:33.049Z,21.75
2017-03-28T12:31:33.074Z,21.66
2017-03-28T12:32:33.093Z,22.14
2017-03-28T12:33:33.121Z,21.47
2017-03-28T12:34:33.146Z,21.85
2017-03-28T12:35:33.169Z,21.47
2017-03-28T12:36:33.191Z,21.77
2017-03-28T12:37:33.217Z,21.47
2017-03-28T12:38:33.241Z,21.47
2017-03-28T12:39:33.266Z,21.77
2017-03-28T12:40:32.977Z,21.57
2017-03-28T12:41:33.315Z,21.57
2017-03-28T12:42:33.335Z,21.57
2017-03-28T12:43:33.369Z,21.09
2017-03-28T12:44:33.386Z,21.38
2017-03-28T12:45:33.410Z,21.57
2017-03-28T12:46:33.437Z,21.38
2017-03-28T12:47:33.458Z,21.38
2017-03-28T12:48:33.483Z,21.28
2017-03-28T12:49:33.515Z,21.28
2017-03-28T12:50:33.562Z,21.38
2017-03-28T12:51:33.562Z,21.57
2017-03-28T12:52:33.583Z,21.58
2017-03-28T12:53:33.610Z,21.09
2017-03-28T12:54:33.644Z,21.39
2017-03-28T12:55:33.657Z,21.48